Time;durP1;ratioP1;P1;durP2;ratioP2;P2;SDS_P1;SDS_P2;PMS_P1;PMS_P2;Temp;Humidity;BMP_temperature;BMP_pressure;BME280_temperature;BME280_humidity;BME280_pressure;Samples;Min_cycle;Max_cycle;Signal;HPM_P1;HPM_P2
2022/05/03 00:01:46;;;;;;;9.05;7.30;;;12.40;99.90;;;;;;4992908;28;19922;-78
2022/05/03 00:04:24;;;;;;;9.70;7.45;;;12.30;99.90;;;;;;4992886;28;20082;-76
2022/05/03 00:07:04;;;;;;;8.65;6.85;;;12.10;99.90;;;;;;4992977;28;20141;-77
2022/05/03 00:09:40;;;;;;;9.23;7.13;;;12.20;99.90;;;;;;4992977;28;20503;-79
2022/05/03 00:12:12;;;;;;;9.60;6.90;;;12.30;99.90;;;;;;4992910;28;20042;-80
2022/05/03 00:14:47;;;;;;;7.35;6.18;;;12.30;99.90;;;;;;4993245;28;20129;-77
2022/05/03 00:17:18;;;;;;;9.25;6.57;;;12.30;99.90;;;;;;4993280;28;20077;-80
2022/05/03 00:19:46;;;;;;;8.13;6.30;;;12.50;99.90;;;;;;4993665;28;20113;-77
2022/05/03 00:22:14;;;;;;;8.82;6.95;;;12.50;99.90;;;;;;4993426;28;20085;-80
2022/05/03 00:24:42;;;;;;;8.35;6.90;;;12.30;99.90;;;;;;4995805;28;20058;-78
2022/05/03 00:27:09;;;;;;;9.27;6.63;;;12.20;99.90;;;;;;4997021;28;20141;-78
2022/05/03 00:29:37;;;;;;;8.52;6.57;;;12.10;99.90;;;;;;4996814;28;20081;-77
2022/05/03 00:32:07;;;;;;;7.53;6.05;;;12.20;99.90;;;;;;4996949;28;20121;-79
2022/05/03 00:34:35;;;;;;;7.97;6.40;;;12.30;99.90;;;;;;4996708;28;20563;-80
2022/05/03 00:37:02;;;;;;;7.93;6.40;;;12.20;99.90;;;;;;4997253;28;20137;-80
2022/05/03 00:39:29;;;;;;;8.02;5.90;;;12.20;99.90;;;;;;4997366;28;20463;-79
2022/05/03 00:42:03;;;;;;;8.55;6.45;;;12.40;99.90;;;;;;4996794;28;20728;-79
2022/05/03 00:44:58;;;;;;;7.30;5.88;;;12.40;99.90;;;;;;4997021;28;20081;-78
2022/05/03 00:47:36;;;;;;;7.65;5.97;;;12.40;99.90;;;;;;4996549;28;20093;-79
2022/05/03 00:50:07;;;;;;;8.75;6.55;;;12.40;99.90;;;;;;4997157;28;20451;-79
2022/05/03 00:52:43;;;;;;;9.30;6.95;;;12.20;99.90;;;;;;4997128;28;20516;-78
2022/05/03 00:55:37;;;;;;;8.77;6.70;;;12.20;99.90;;;;;;4997146;28;20126;-80
2022/05/03 00:58:38;;;;;;;8.57;6.28;;;12.20;99.90;;;;;;4996410;28;20508;-79
2022/05/03 01:01:15;;;;;;;7.30;6.43;;;12.20;99.90;;;;;;4996700;28;20090;-78
2022/05/03 01:03:56;;;;;;;7.93;6.10;;;11.80;99.90;;;;;;4996350;28;20133;-78
2022/05/03 01:06:49;;;;;;;8.10;6.55;;;11.70;99.90;;;;;;4996222;28;20141;-78
2022/05/03 01:09:24;;;;;;;7.90;6.63;;;11.40;99.90;;;;;;4996492;28;20078;-78
2022/05/03 01:12:13;;;;;;;8.48;7.20;;;11.10;99.90;;;;;;4996096;28;20468;-78
2022/05/03 01:15:03;;;;;;;8.98;6.78;;;11.10;99.90;;;;;;4996323;28;20093;-78
2022/05/03 01:17:44;;;;;;;9.63;7.00;;;11.50;99.90;;;;;;4996280;28;20125;-77
2022/05/03 01:20:16;;;;;;;10.75;7.38;;;11.60;99.90;;;;;;4996665;28;20403;-78
2022/05/03 01:23:43;;;;;;;10.02;7.10;;;11.20;99.90;;;;;;4996148;28;20051;-78
2022/05/03 01:27:16;;;;;;;10.10;7.68;;;11.10;99.90;;;;;;4973284;28;20277;-81
2022/05/03 01:29:46;;;;;;;9.00;7.40;;;11.00;99.90;;;;;;4996277;28;20047;-78
2022/05/03 01:32:18;;;;;;;8.77;7.15;;;11.10;99.90;;;;;;4996034;28;20473;-78
2022/05/03 01:34:47;;;;;;;9.18;7.05;;;11.10;99.90;;;;;;4995779;28;20093;-80
2022/05/03 01:37:54;;;;;;;9.60;7.57;;;11.20;99.90;;;;;;4995654;28;20133;-79
2022/05/03 01:40:33;;;;;;;10.43;7.88;;;11.30;99.90;;;;;;4995994;28;20145;-80
2022/05/03 01:43:13;;;;;;;10.48;7.15;;;11.40;99.90;;;;;;4996050;28;20053;-79
2022/05/03 01:45:59;;;;;;;9.60;7.88;;;11.20;99.90;;;;;;4995844;28;20424;-78
2022/05/03 01:51:32;;;;;;;9.20;7.30;;;10.90;99.90;;;;;;4995948;28;20416;-79
2022/05/03 01:54:18;;;;;;;9.63;7.13;;;11.00;99.90;;;;;;4995689;28;20081;-77
2022/05/03 01:56:58;;;;;;;9.32;7.38;;;10.90;99.90;;;;;;4995288;28;20140;-77
2022/05/03 01:59:35;;;;;;;9.10;7.50;;;10.70;99.90;;;;;;4995577;28;20132;-79
2022/05/03 02:02:15;;;;;;;10.05;7.28;;;10.30;99.90;;;;;;4995814;28;20141;-77
2022/05/03 02:05:01;;;;;;;9.20;7.88;;;10.30;99.90;;;;;;5015201;28;20171;-79
2022/05/03 02:07:45;;;;;;;8.38;6.80;;;10.20;99.90;;;;;;5015051;28;20056;-79
2022/05/03 02:10:19;;;;;;;8.98;7.22;;;10.40;99.90;;;;;;5015093;28;20054;-79
2022/05/03 02:12:53;;;;;;;9.02;6.93;;;10.50;99.90;;;;;;5014555;28;20132;-79
2022/05/03 02:15:31;;;;;;;9.48;7.40;;;10.50;99.90;;;;;;5014814;28;20141;-79
2022/05/03 02:18:06;;;;;;;10.02;7.22;;;10.60;99.90;;;;;;5014802;28;20042;-78
2022/05/03 02:21:11;;;;;;;10.05;7.38;;;10.10;99.90;;;;;;5014477;28;20057;-78
2022/05/03 02:24:01;;;;;;;8.75;7.13;;;9.90;99.90;;;;;;4999926;28;20129;-77
2022/05/03 02:26:39;;;;;;;8.50;6.78;;;10.10;99.90;;;;;;5014284;28;20048;-79
2022/05/03 02:29:11;;;;;;;8.18;6.45;;;10.30;99.90;;;;;;5015119;28;20086;-77
2022/05/03 02:31:48;;;;;;;11.23;8.10;;;10.50;99.90;;;;;;5014899;28;20141;-76
2022/05/03 02:34:30;;;;;;;10.77;8.43;;;10.10;99.90;;;;;;5014464;28;20056;-79
2022/05/03 02:37:13;;;;;;;10.75;8.32;;;9.90;99.90;;;;;;5014565;28;20141;-80
2022/05/03 02:39:56;;;;;;;9.57;7.83;;;9.70;99.90;;;;;;5014133;28;20054;-80
2022/05/03 02:42:23;;;;;;;9.20;7.50;;;9.50;99.90;;;;;;5014372;28;20125;-79
2022/05/03 02:44:53;;;;;;;9.25;8.00;;;9.30;99.90;;;;;;5014424;28;20135;-77
2022/05/03 02:47:35;;;;;;;9.25;7.65;;;9.40;99.90;;;;;;5013439;28;20144;-77
2022/05/03 02:50:09;;;;;;;10.55;7.95;;;9.70;99.90;;;;;;5013984;28;20452;-78
2022/05/03 02:52:44;;;;;;;9.98;7.70;;;9.90;99.90;;;;;;5013811;28;20126;-77
2022/05/03 02:55:20;;;;;;;;;;;9.90;99.90;;;;;;5014178;28;20096;-78
2022/05/03 02:57:55;;;;;;;9.85;8.02;;;10.00;99.90;;;;;;5014030;28;20387;-79
2022/05/03 03:03:50;;;;;;;9.68;7.57;;;10.40;99.90;;;;;;5014259;28;20518;-77
2022/05/03 03:06:24;;;;;;;10.57;8.10;;;10.40;99.90;;;;;;4934234;29;20083;-78
2022/05/03 03:08:55;;;;;;;9.52;8.02;;;10.10;99.90;;;;;;5005289;28;20097;-78
2022/05/03 03:11:39;;;;;;;11.20;8.50;;;9.80;99.90;;;;;;5013466;28;20404;-79
2022/05/03 03:14:22;;;;;;;9.95;7.75;;;9.90;99.90;;;;;;5013549;28;20092;-77
2022/05/03 03:16:56;;;;;;;9.07;7.05;;;9.80;99.90;;;;;;5013727;28;20081;-78
2022/05/03 03:19:49;;;;;;;9.50;6.85;;;10.10;99.90;;;;;;5013500;28;20491;-79
2022/05/03 03:22:20;;;;;;;8.82;7.10;;;10.20;99.90;;;;;;5001171;28;20132;-77
2022/05/03 03:24:49;;;;;;;8.25;6.43;;;10.20;99.90;;;;;;5013659;28;20108;-76
2022/05/03 03:27:20;;;;;;;8.02;6.35;;;10.10;99.90;;;;;;5013788;28;20134;-77
2022/05/03 03:29:50;;;;;;;8.57;6.20;;;10.10;99.90;;;;;;5013547;28;20125;-80
2022/05/03 03:32:19;;;;;;;8.88;7.07;;;10.00;99.90;;;;;;5013097;28;20502;-79
2022/05/03 03:34:50;;;;;;;8.38;6.80;;;9.80;99.90;;;;;;5005408;28;20144;-78
2022/05/03 03:37:24;;;;;;;8.60;6.93;;;9.80;99.90;;;;;;5013943;28;20096;-78
2022/05/03 03:39:51;;;;;;;9.50;6.82;;;9.80;99.90;;;;;;5013909;28;20141;-78
2022/05/03 03:42:18;;;;;;;9.50;6.70;;;9.90;99.90;;;;;;5012914;28;20471;-79
2022/05/03 03:44:46;;;;;;;12.02;7.55;;;9.70;99.90;;;;;;5013456;28;20125;-77
2022/05/03 03:47:15;;;;;;;8.68;7.22;;;9.60;99.90;;;;;;5012806;28;20488;-78
2022/05/03 03:49:43;;;;;;;9.02;7.22;;;9.50;99.90;;;;;;5013119;28;20133;-77
2022/05/03 03:52:11;;;;;;;10.40;7.47;;;9.20;99.90;;;;;;5013041;28;20133;-78
2022/05/03 03:54:41;;;;;;;9.13;7.20;;;9.00;99.90;;;;;;5013122;28;20128;-78
2022/05/03 03:57:09;;;;;;;10.10;7.35;;;8.90;99.90;;;;;;5012941;28;20078;-76
2022/05/03 03:59:38;;;;;;;8.93;6.97;;;9.10;99.90;;;;;;5012552;28;20045;-77
2022/05/03 04:02:06;;;;;;;9.73;7.40;;;9.30;99.90;;;;;;5012432;28;20136;-79
2022/05/03 04:04:37;;;;;;;9.65;7.10;;;9.30;99.90;;;;;;5012867;28;20480;-78
2022/05/03 04:07:06;;;;;;;9.35;6.85;;;9.20;99.90;;;;;;5013354;28;20140;-77
2022/05/03 04:09:33;;;;;;;10.13;7.63;;;9.30;99.90;;;;;;5013094;28;20444;-75
2022/05/03 04:12:05;;;;;;;9.90;7.05;;;9.30;99.90;;;;;;5013421;28;20073;-77
2022/05/03 04:14:32;;;;;;;9.05;7.60;;;9.20;99.90;;;;;;5013276;28;20129;-78
2022/05/03 04:17:00;;;;;;;10.32;7.35;;;9.00;99.90;;;;;;5012951;28;20050;-78
2022/05/03 04:19:27;;;;;;;9.65;7.68;;;9.20;99.90;;;;;;5012934;28;20128;-80
2022/05/03 04:21:55;;;;;;;10.00;7.25;;;8.90;99.90;;;;;;5012713;28;20042;-79
2022/05/03 04:24:22;;;;;;;9.38;6.97;;;9.00;99.90;;;;;;5013250;28;20133;-77
2022/05/03 04:26:49;;;;;;;9.60;7.47;;;9.20;99.90;;;;;;5012976;28;20050;-78
2022/05/03 04:29:20;;;;;;;10.68;7.40;;;9.20;99.90;;;;;;5012371;28;20046;-79
2022/05/03 04:31:47;;;;;;;10.60;7.60;;;9.10;99.90;;;;;;5012625;28;20563;-78
2022/05/03 04:34:14;;;;;;;9.60;7.28;;;9.10;99.90;;;;;;5012533;28;20137;-78
2022/05/03 04:36:41;;;;;;;10.02;7.25;;;9.00;99.90;;;;;;5012512;28;20148;-79
2022/05/03 04:39:09;;;;;;;9.38;7.55;;;9.20;99.90;;;;;;5012735;28;20141;-78
2022/05/03 04:41:36;;;;;;;9.30;7.07;;;9.20;99.90;;;;;;5012723;28;20086;-79
2022/05/03 04:44:03;;;;;;;9.18;7.55;;;9.30;99.90;;;;;;5012107;28;20137;-79
2022/05/03 04:46:31;;;;;;;8.68;7.22;;;9.40;99.90;;;;;;5012490;28;20470;-79
2022/05/03 04:48:58;;;;;;;9.75;7.65;;;9.40;99.90;;;;;;5012369;28;20144;-80
2022/05/03 04:51:26;;;;;;;10.60;7.50;;;9.60;99.90;;;;;;5012759;28;20125;-79
2022/05/03 04:53:54;;;;;;;10.98;8.80;;;9.40;99.90;;;;;;5012357;28;20499;-78
2022/05/03 04:56:24;;;;;;;10.13;7.95;;;9.30;99.90;;;;;;5012242;28;20133;-77
2022/05/03 04:58:55;;;;;;;10.20;8.02;;;9.20;99.90;;;;;;5012566;28;20137;-79
2022/05/03 05:01:23;;;;;;;9.93;8.05;;;9.10;99.90;;;;;;5010479;28;20297;-79
2022/05/03 05:03:51;;;;;;;9.63;7.50;;;9.00;99.90;;;;;;5012270;28;20045;-80
2022/05/03 05:06:21;;;;;;;9.98;7.55;;;9.10;99.90;;;;;;5012545;28;20124;-79
2022/05/03 05:08:48;;;;;;;9.93;7.68;;;9.00;99.90;;;;;;5012391;28;20096;-79
2022/05/03 05:11:15;;;;;;;9.77;7.28;;;9.10;99.90;;;;;;5015039;28;20529;-79
2022/05/03 05:13:42;;;;;;;9.32;7.47;;;9.10;99.90;;;;;;5015878;28;20133;-78
2022/05/03 05:16:10;;;;;;;11.45;7.95;;;9.10;99.90;;;;;;5015737;28;20072;-78
2022/05/03 05:18:37;;;;;;;10.32;8.98;;;9.30;99.90;;;;;;5015997;28;20073;-79
2022/05/03 05:21:06;;;;;;;11.75;8.50;;;9.40;99.90;;;;;;5015895;28;20475;-78
2022/05/03 05:23:33;;;;;;;10.52;8.55;;;9.50;99.90;;;;;;5015680;28;20470;-79
2022/05/03 05:26:00;;;;;;;10.70;8.60;;;9.60;99.90;;;;;;5015429;28;20136;-79
2022/05/03 05:28:27;;;;;;;11.68;8.77;;;9.80;99.90;;;;;;5015545;28;20065;-78
2022/05/03 05:30:55;;;;;;;10.80;8.50;;;9.80;99.90;;;;;;5015351;28;20439;-79
2022/05/03 05:33:23;;;;;;;11.35;8.63;;;9.90;99.90;;;;;;5014112;28;20144;-79
2022/05/03 05:35:52;;;;;;;13.07;9.10;;;9.90;99.90;;;;;;5015454;28;20130;-79
2022/05/03 05:38:21;;;;;;;10.68;8.30;;;9.80;99.90;;;;;;5015295;28;20104;-78
2022/05/03 05:40:49;;;;;;;11.38;8.40;;;9.70;99.90;;;;;;5015035;28;20133;-78
2022/05/03 05:43:16;;;;;;;21.95;12.95;;;9.80;99.90;;;;;;5014925;28;20053;-78
2022/05/03 05:45:44;;;;;;;16.10;10.82;;;9.90;99.90;;;;;;5015454;28;20134;-77
2022/05/03 05:48:13;;;;;;;13.45;9.43;;;9.90;99.90;;;;;;5015313;28;20077;-80
2022/05/03 05:50:41;;;;;;;11.00;8.70;;;9.80;99.90;;;;;;5015110;28;20388;-77
2022/05/03 05:55:53;;;;;;;10.40;8.43;;;9.80;99.90;;;;;;5015390;28;20056;-78
2022/05/03 05:58:20;;;;;;;11.23;8.45;;;9.90;99.90;;;;;;5014724;28;20049;-77
2022/05/03 06:00:47;;;;;;;10.95;8.93;;;9.90;99.90;;;;;;5014690;28;20573;-78
2022/05/03 06:03:16;;;;;;;11.65;8.90;;;9.90;99.90;;;;;;5015459;28;20077;-76
2022/05/03 06:05:43;;;;;;;11.07;9.05;;;10.00;99.90;;;;;;5014718;28;20058;-78
2022/05/03 06:08:11;;;;;;;11.02;9.05;;;10.20;99.90;;;;;;5014497;28;20050;-77
2022/05/03 06:10:38;;;;;;;10.27;8.13;;;10.20;99.90;;;;;;5014960;28;20042;-77
2022/05/03 06:13:06;;;;;;;10.63;7.88;;;10.50;99.90;;;;;;5015048;28;20132;-78
2022/05/03 06:15:33;;;;;;;10.05;8.25;;;10.60;99.90;;;;;;5015220;28;20125;-77
2022/05/03 06:18:01;;;;;;;12.25;8.55;;;10.70;99.90;;;;;;5015157;28;20474;-78
2022/05/03 06:20:28;;;;;;;10.77;8.25;;;10.60;99.90;;;;;;5014780;28;20052;-80
2022/05/03 06:22:56;;;;;;;10.45;7.97;;;10.50;99.90;;;;;;5013336;28;20096;-78
2022/05/03 06:25:23;;;;;;;10.30;8.10;;;10.60;99.90;;;;;;5014956;28;20470;-78
2022/05/03 06:27:51;;;;;;;10.30;7.80;;;10.60;99.90;;;;;;5014985;28;20079;-78
2022/05/03 06:30:19;;;;;;;9.23;7.28;;;10.80;99.90;;;;;;5015524;28;20053;-77
2022/05/03 06:32:46;;;;;;;8.80;6.68;;;10.90;99.90;;;;;;5015475;28;20054;-78
2022/05/03 06:35:14;;;;;;;9.15;6.90;;;11.00;99.90;;;;;;5015609;28;20088;-77
2022/05/03 06:37:42;;;;;;;8.98;7.10;;;11.00;99.90;;;;;;5015032;28;20141;-77
2022/05/03 06:40:11;;;;;;;8.77;6.60;;;11.10;99.90;;;;;;5014828;28;20052;-79
2022/05/03 06:42:41;;;;;;;8.48;6.88;;;11.20;99.90;;;;;;5014126;28;20133;-78
2022/05/03 06:45:10;;;;;;;9.25;6.90;;;11.30;99.90;;;;;;5014194;28;20137;-79
2022/05/03 06:47:40;;;;;;;11.20;7.45;;;11.30;99.90;;;;;;5014890;28;20100;-78
2022/05/03 06:50:09;;;;;;;10.10;7.30;;;11.40;99.90;;;;;;5014450;28;20049;-77
2022/05/03 06:52:37;;;;;;;9.98;8.23;;;11.50;99.90;;;;;;5015253;28;20049;-79
2022/05/03 06:55:05;;;;;;;8.77;7.22;;;11.50;99.90;;;;;;5013973;28;20096;-78
2022/05/03 06:57:33;;;;;;;9.52;7.05;;;11.60;99.90;;;;;;5017791;28;20053;-77
2022/05/03 07:00:02;;;;;;;11.52;7.68;;;11.70;99.90;;;;;;5019241;28;20104;-76
2022/05/03 07:02:31;;;;;;;8.88;6.88;;;11.70;99.90;;;;;;5015281;28;20054;-77
2022/05/03 07:05:00;;;;;;;8.70;6.72;;;11.80;99.90;;;;;;5013993;28;20408;-77
2022/05/03 07:07:28;;;;;;;10.30;7.07;;;11.90;99.90;;;;;;5013964;28;20136;-76
2022/05/03 07:09:55;;;;;;;10.27;7.80;;;12.00;99.90;;;;;;5013964;28;20092;-79
2022/05/03 07:12:22;;;;;;;11.60;8.65;;;12.00;99.90;;;;;;5014203;28;20520;-78
2022/05/03 07:14:49;;;;;;;9.60;7.63;;;12.00;99.90;;;;;;5014064;28;20080;-77
2022/05/03 07:22:50;;;;;;;8.75;7.25;;;12.30;99.90;;;;;;5013440;28;20057;-79
2022/05/03 07:25:18;;;;;;;9.27;7.68;;;12.40;99.90;;;;;;5013300;28;20337;-77
2022/05/03 07:27:46;;;;;;;11.63;8.18;;;12.40;99.90;;;;;;5013911;28;20046;-77
2022/05/03 07:30:14;;;;;;;9.07;7.63;;;12.40;99.90;;;;;;5013887;28;20057;-78
2022/05/03 07:32:42;;;;;;;11.50;7.72;;;12.50;99.90;;;;;;5013304;28;20523;-78
2022/05/03 07:35:11;;;;;;;9.13;7.68;;;12.60;99.90;;;;;;5013301;28;20081;-78
2022/05/03 07:37:43;;;;;;;10.82;8.50;;;12.70;99.90;;;;;;5013031;28;20560;-79
2022/05/03 07:40:12;;;;;;;10.70;8.15;;;12.70;99.90;;;;;;5013286;28;20054;-79
2022/05/03 07:42:39;;;;;;;9.85;7.40;;;12.80;99.90;;;;;;5013366;28;20074;-78
2022/05/03 07:45:08;;;;;;;11.40;8.43;;;13.00;99.90;;;;;;5013296;28;20133;-79
2022/05/03 07:47:36;;;;;;;13.50;9.75;;;13.00;99.90;;;;;;5013027;28;20081;-79
2022/05/03 07:50:05;;;;;;;12.20;8.90;;;12.90;99.90;;;;;;5012992;28;20558;-80
2022/05/03 07:52:35;;;;;;;11.07;9.05;;;13.00;99.90;;;;;;5012574;28;20396;-79
2022/05/03 07:55:03;;;;;;;11.32;8.10;;;13.10;99.90;;;;;;5013442;28;20128;-79
2022/05/03 07:57:30;;;;;;;11.82;8.52;;;13.10;99.90;;;;;;5013571;28;20049;-80
2022/05/03 07:59:57;;;;;;;10.80;8.20;;;13.30;99.90;;;;;;5013243;28;20132;-79
2022/05/03 08:02:25;;;;;;;12.48;9.35;;;13.40;99.90;;;;;;5013008;28;20061;-80
2022/05/03 08:04:53;;;;;;;11.93;8.70;;;13.50;99.90;;;;;;5012762;28;20480;-80
2022/05/03 08:07:21;;;;;;;10.52;8.80;;;13.50;99.90;;;;;;5012810;28;20129;-80
2022/05/03 08:09:50;;;;;;;11.80;9.40;;;13.50;99.90;;;;;;5013059;28;20241;-80
2022/05/03 08:12:17;;;;;;;13.77;9.27;;;13.50;99.90;;;;;;5013251;28;20571;-81
2022/05/03 08:14:45;;;;;;;11.32;8.05;;;13.60;99.90;;;;;;5012979;28;20129;-79
2022/05/03 08:17:13;;;;;;;9.35;7.05;;;13.70;99.90;;;;;;5012864;28;20046;-78
2022/05/03 08:19:41;;;;;;;10.00;7.30;;;13.90;99.90;;;;;;5012592;28;20590;-81
2022/05/03 08:22:08;;;;;;;11.27;7.32;;;14.00;99.90;;;;;;5012780;28;20081;-80
2022/05/03 08:24:35;;;;;;;8.85;7.05;;;14.00;99.90;;;;;;5013096;28;20146;-78
2022/05/03 08:27:04;;;;;;;9.45;7.40;;;14.00;99.90;;;;;;5012896;28;20050;-79
2022/05/03 08:29:32;;;;;;;13.27;7.53;;;14.10;99.90;;;;;;5012739;28;20136;-78
2022/05/03 08:32:00;;;;;;;8.02;6.80;;;14.20;99.90;;;;;;5012919;28;20397;-79
2022/05/03 08:34:27;;;;;;;9.20;6.25;;;14.40;99.90;;;;;;5012243;28;20454;-80
2022/05/03 08:42:27;;;;;;;8.75;6.65;;;14.40;99.90;;;;;;5018453;28;20096;-78
2022/05/03 08:44:56;;;;;;;8.23;5.82;;;14.50;99.90;;;;;;5015708;28;20054;-78
2022/05/03 08:47:26;;;;;;;8.27;6.82;;;14.60;99.90;;;;;;5017756;28;20104;-78
2022/05/03 08:50:01;;;;;;;8.32;5.88;;;14.60;99.90;;;;;;5019309;28;20134;-77
2022/05/03 08:52:33;;;;;;;7.22;5.25;;;14.60;99.90;;;;;;5017530;28;20054;-79
2022/05/03 08:55:01;;;;;;;7.47;5.28;;;14.80;99.90;;;;;;5017159;28;20050;-78
2022/05/03 08:57:30;;;;;;;8.00;4.78;;;14.80;99.90;;;;;;5017235;28;20144;-77
2022/05/03 08:59:58;;;;;;;8.27;5.88;;;15.00;99.80;;;;;;5016553;28;20081;-77
2022/05/03 09:02:25;;;;;;;7.18;5.10;;;15.00;99.90;;;;;;5016150;28;20096;-78
2022/05/03 09:04:52;;;;;;;6.22;4.57;;;15.10;99.60;;;;;;5016235;28;20184;-79
2022/05/03 09:07:24;;;;;;;8.15;5.15;;;15.30;98.40;;;;;;5015619;28;20538;-81
2022/05/03 09:09:53;;;;;;;5.28;4.20;;;15.30;98.40;;;;;;5015862;28;20134;-80
2022/05/03 09:12:25;;;;;;;7.90;4.00;;;15.30;97.90;;;;;;5016120;28;20050;-79
2022/05/03 09:14:56;;;;;;;7.50;3.78;;;15.40;98.40;;;;;;5015846;28;20132;-80
2022/05/03 09:17:37;;;;;;;6.25;4.38;;;15.40;98.30;;;;;;5015495;28;20140;-78
2022/05/03 09:25:42;;;;;;;6.35;4.38;;;15.60;96.60;;;;;;5015890;28;20057;-76
2022/05/03 09:28:10;;;;;;;5.90;4.03;;;15.80;96.40;;;;;;5015350;28;20058;-78
2022/05/03 09:30:47;;;;;;;7.22;5.07;;;15.80;97.30;;;;;;5015733;28;20162;-80
2022/05/03 09:33:19;;;;;;;6.05;4.40;;;15.80;97.40;;;;;;5015732;28;20046;-80
2022/05/03 09:35:48;;;;;;;5.15;3.97;;;15.80;97.20;;;;;;5015544;28;20141;-79
2022/05/03 09:38:16;;;;;;;6.10;3.75;;;15.80;97.10;;;;;;5015854;28;20073;-78
2022/05/03 09:40:45;;;;;;;5.00;3.60;;;15.90;96.20;;;;;;5015218;28;20129;-78
2022/05/03 09:43:13;;;;;;;5.38;3.78;;;16.00;96.20;;;;;;5015018;28;20476;-78
2022/05/03 09:45:42;;;;;;;5.47;3.33;;;16.20;96.10;;;;;;5015492;28;20069;-81
2022/05/03 09:48:10;;;;;;;5.68;3.22;;;16.20;95.30;;;;;;5017769;28;20057;-78
2022/05/03 09:50:41;;;;;;;5.90;4.10;;;16.30;95.50;;;;;;5016043;28;20492;-78
2022/05/03 09:53:12;;;;;;;4.95;3.17;;;16.20;95.30;;;;;;5015667;28;20538;-78
2022/05/03 09:55:41;;;;;;;5.82;4.10;;;16.40;95.20;;;;;;5014752;28;20133;-78
2022/05/03 09:58:12;;;;;;;5.45;3.17;;;16.50;95.80;;;;;;5014136;28;20054;-79
2022/05/03 10:00:43;;;;;;;4.88;3.00;;;16.60;95.40;;;;;;5015107;28;20137;-78
2022/05/03 10:03:12;;;;;;;4.65;3.05;;;16.80;94.70;;;;;;5015742;28;20080;-78
2022/05/03 10:05:40;;;;;;;5.43;3.72;;;16.80;94.70;;;;;;5015598;28;20077;-77
2022/05/03 10:08:11;;;;;;;5.60;3.80;;;16.60;94.40;;;;;;5015959;28;20161;-77
2022/05/03 10:10:43;;;;;;;5.07;3.45;;;16.70;94.70;;;;;;5015447;28;20089;-79
2022/05/03 10:13:12;;;;;;;6.15;3.60;;;16.80;95.10;;;;;;5015627;28;20046;-77
2022/05/03 10:21:28;;;;;;;5.28;3.80;;;17.00;93.90;;;;;;5015095;28;20084;-79
2022/05/03 10:24:05;;;;;;;5.28;3.40;;;17.10;93.90;;;;;;5015117;28;20054;-78
2022/05/03 10:27:09;;;;;;;4.63;3.00;;;17.20;95.10;;;;;;5014818;28;20049;-79
2022/05/03 10:29:38;;;;;;;6.30;4.07;;;17.40;93.50;;;;;;5014093;28;20051;-80
2022/05/03 10:32:15;;;;;;;5.20;3.53;;;17.40;93.30;;;;;;5014307;28;20133;-77
2022/05/03 10:34:53;;;;;;;5.97;3.45;;;17.50;93.40;;;;;;5014085;28;20052;-80
2022/05/03 10:38:00;;;;;;;5.60;4.05;;;17.60;94.00;;;;;;5014147;28;20480;-79
2022/05/03 10:40:32;;;;;;;4.28;2.90;;;17.40;92.50;;;;;;5013853;28;20563;-79
2022/05/03 10:43:09;;;;;;;5.07;3.20;;;17.50;91.40;;;;;;5013923;28;20381;-81
2022/05/03 10:45:51;;;;;;;4.47;3.13;;;17.70;92.00;;;;;;5013927;28;20550;-79
2022/05/03 10:48:28;;;;;;;5.75;3.15;;;17.60;91.20;;;;;;5013956;28;20480;-78
2022/05/03 10:50:58;;;;;;;5.15;3.40;;;17.80;91.30;;;;;;5013935;28;20085;-80
2022/05/03 10:53:32;;;;;;;6.82;3.72;;;17.90;92.60;;;;;;5013804;28;20484;-79
2022/05/03 10:56:19;;;;;;;6.30;3.97;;;17.90;91.80;;;;;;5013939;28;20413;-79
2022/05/03 10:59:05;;;;;;;5.97;3.42;;;17.80;91.40;;;;;;5013501;28;20050;-79
2022/05/03 11:01:32;;;;;;;6.30;3.30;;;17.90;90.40;;;;;;5013482;28;20053;-80
2022/05/03 11:04:14;;;;;;;6.03;3.90;;;18.00;91.10;;;;;;5013551;28;20133;-79
2022/05/03 11:06:43;;;;;;;5.05;3.50;;;18.10;91.10;;;;;;5013638;28;20093;-80
2022/05/03 11:09:15;;;;;;;4.75;3.20;;;18.20;90.00;;;;;;5013290;28;20546;-80
2022/05/03 11:12:07;;;;;;;5.50;3.60;;;18.30;90.40;;;;;;5014260;28;20492;-78
2022/05/03 11:14:54;;;;;;;4.60;3.28;;;18.60;90.60;;;;;;5013874;28;20484;-77
2022/05/03 11:17:23;;;;;;;5.07;3.35;;;18.50;89.70;;;;;;5014096;28;20137;-78
2022/05/03 11:20:02;;;;;;;4.07;2.75;;;18.30;87.50;;;;;;5014056;28;20388;-78
2022/05/03 11:22:33;;;;;;;5.65;3.08;;;18.30;88.30;;;;;;5013428;28;20077;-81
2022/05/03 11:25:06;;;;;;;5.00;3.42;;;18.30;88.00;;;;;;5013159;28;20049;-79
2022/05/03 11:27:33;;;;;;;3.75;2.38;;;18.30;84.00;;;;;;5015759;28;20049;-78
2022/05/03 11:30:04;;;;;;;4.28;2.50;;;18.50;83.80;;;;;;5015948;28;20045;-80
2022/05/03 11:32:34;;;;;;;3.83;2.30;;;18.60;83.50;;;;;;5013874;28;20050;-80
2022/05/03 11:35:08;;;;;;;5.28;3.45;;;18.80;85.80;;;;;;5013221;28;20131;-80
2022/05/03 11:37:37;;;;;;;4.97;2.95;;;18.80;83.90;;;;;;5013035;28;20133;-80
2022/05/03 11:40:08;;;;;;;3.75;2.40;;;18.80;86.00;;;;;;5013526;28;20042;-80
2022/05/03 11:42:40;;;;;;;4.20;2.42;;;19.00;86.30;;;;;;5013041;28;20136;-80
2022/05/03 11:45:09;;;;;;;4.03;2.45;;;19.00;84.40;;;;;;5013048;28;20085;-80
2022/05/03 11:47:41;;;;;;;3.83;2.42;;;18.90;83.90;;;;;;5012901;28;20084;-79
2022/05/03 11:50:13;;;;;;;4.85;2.60;;;18.80;82.60;;;;;;5013285;28;20404;-78
2022/05/03 11:58:11;;;;;;;4.55;2.67;;;18.70;84.20;;;;;;5012915;28;20502;-81
2022/05/03 12:00:47;;;;;;;4.50;2.70;;;18.60;84.80;;;;;;5012908;28;20132;-81
2022/05/03 12:03:15;;;;;;;4.80;2.17;;;18.60;85.10;;;;;;5012960;28;20141;-80
2022/05/03 12:05:57;;;;;;;4.15;2.28;;;18.30;84.50;;;;;;5012564;28;20407;-80
2022/05/03 12:08:25;;;;;;;4.38;2.17;;;18.30;85.30;;;;;;5012652;28;20097;-78
2022/05/03 12:10:56;;;;;;;3.72;2.00;;;18.20;84.00;;;;;;5012808;28;20140;-78
2022/05/03 12:13:31;;;;;;;4.20;1.90;;;18.20;83.30;;;;;;5012820;28;20138;-79
2022/05/03 12:16:07;;;;;;;;;;;18.10;83.70;;;;;;5013337;28;20108;-79
2022/05/03 12:18:37;;;;;;;4.57;2.05;;;18.10;82.40;;;;;;5012467;28;19976;-80
2022/05/03 12:21:10;;;;;;;5.13;1.90;;;18.00;83.60;;;;;;5011967;28;20050;-80
2022/05/03 12:23:45;;;;;;;5.05;2.85;;;17.80;88.50;;;;;;5012760;28;20060;-80
2022/05/03 12:26:26;;;;;;;7.32;3.10;;;17.20;94.30;;;;;;5012633;28;20092;-80
2022/05/03 12:28:56;;;;;;;7.07;3.38;;;17.00;98.80;;;;;;5012518;28;20052;-80
2022/05/03 12:31:28;;;;;;;5.78;3.25;;;16.80;97.20;;;;;;5012221;28;20045;-80
2022/05/03 12:33:57;;;;;;;5.82;2.72;;;16.60;94.40;;;;;;5012544;28;20046;-81
2022/05/03 12:36:32;;;;;;;5.63;2.60;;;16.50;94.40;;;;;;5012613;28;20081;-78
2022/05/03 12:39:11;;;;;;;4.63;2.60;;;16.40;92.70;;;;;;5012719;28;20477;-77
2022/05/03 12:41:39;;;;;;;4.63;2.53;;;16.50;96.20;;;;;;5012411;28;20085;-80
2022/05/03 12:44:09;;;;;;;3.92;2.63;;;16.50;95.20;;;;;;5012522;28;20050;-80
2022/05/03 12:46:38;;;;;;;6.25;2.90;;;16.70;95.60;;;;;;5012917;28;20190;-78
2022/05/03 12:49:10;;;;;;;6.00;2.83;;;16.70;98.40;;;;;;5013451;28;20546;-80
2022/05/03 12:51:40;;;;;;;5.82;3.10;;;16.50;99.20;;;;;;5015307;28;20280;-80
2022/05/03 12:54:08;;;;;;;4.88;3.22;;;16.70;98.80;;;;;;5015543;28;20060;-80
2022/05/03 12:59:21;;;;;;;6.05;2.83;;;16.80;98.10;;;;;;5015365;28;20092;-81
2022/05/03 13:01:50;;;;;;;4.95;3.15;;;17.00;98.70;;;;;;5007162;28;20054;-79
2022/05/03 13:04:17;;;;;;;5.15;3.17;;;16.70;99.90;;;;;;5014885;28;20057;-77
2022/05/03 13:06:46;;;;;;;5.43;3.05;;;16.30;99.90;;;;;;5015178;28;20077;-79
2022/05/03 13:09:14;;;;;;;5.50;3.00;;;16.20;99.90;;;;;;5015367;28;20535;-78
2022/05/03 13:11:43;;;;;;;6.75;2.92;;;16.20;99.90;;;;;;5014100;28;20554;-78
2022/05/03 13:14:11;;;;;;;5.03;3.22;;;16.20;99.10;;;;;;5012471;28;20092;-78
2022/05/03 13:16:39;;;;;;;5.97;3.20;;;16.10;99.00;;;;;;5012067;28;20104;-79
2022/05/03 13:19:06;;;;;;;5.95;3.40;;;15.90;99.90;;;;;;5012076;28;20049;-78
2022/05/03 13:21:35;;;;;;;5.97;3.40;;;15.70;99.90;;;;;;5011939;28;20058;-79
2022/05/03 13:24:06;;;;;;;5.85;3.40;;;15.80;99.90;;;;;;5012166;28;20233;-76
2022/05/03 13:26:34;;;;;;;5.57;3.33;;;15.80;99.90;;;;;;5012345;28;20381;-79
2022/05/03 13:29:03;;;;;;;6.05;3.60;;;15.90;99.90;;;;;;5012365;28;20053;-77
2022/05/03 13:31:30;;;;;;;8.30;4.00;;;15.90;99.90;;;;;;5013689;28;20140;-78
2022/05/03 13:33:58;;;;;;;6.47;4.28;;;16.00;99.90;;;;;;5015435;28;20137;-78
2022/05/03 13:41:55;;;;;;;7.05;3.97;;;15.70;99.90;;;;;;5015827;28;19931;-79
2022/05/03 13:44:25;;;;;;;6.30;3.65;;;15.90;99.90;;;;;;5015000;28;20484;-78
2022/05/03 13:46:53;;;;;;;5.28;3.50;;;16.00;99.90;;;;;;5015450;28;20132;-78
2022/05/03 13:49:20;;;;;;;6.57;3.80;;;16.00;99.90;;;;;;5015351;28;20046;-76
2022/05/03 13:51:48;;;;;;;5.97;4.00;;;15.90;99.90;;;;;;5014909;28;20559;-77
2022/05/03 13:54:16;;;;;;;6.53;4.10;;;16.00;99.90;;;;;;5015180;28;20471;-79
2022/05/03 13:56:43;;;;;;;5.75;3.55;;;16.00;99.90;;;;;;5015108;28;20125;-79
2022/05/03 13:59:13;;;;;;;5.85;3.55;;;16.10;99.90;;;;;;5014803;28;20460;-77